Time;durP1;ratioP1;P1;durP2;ratioP2;P2;SDS_P1;SDS_P2;PMS_P1;PMS_P2;Temp;Humidity;BMP_temperature;BMP_pressure;BME280_temperature;BME280_humidity;BME280_pressure;Samples;Min_cycle;Max_cycle;Signal;HPM_P1;HPM_P2
2022/05/31 00:01:08;;;;;;;6.95;3.65;;;13.10;98.10;;;;;;7341849;19;108467;-90
2022/05/31 00:03:35;;;;;;;5.07;3.35;;;13.10;97.90;;;;;;7343625;19;109320;-90
2022/05/31 00:06:02;;;;;;;4.15;3.20;;;13.10;97.90;;;;;;7343502;19;108587;-90
2022/05/31 00:08:30;;;;;;;5.43;3.30;;;13.10;97.90;;;;;;7342645;19;109392;-90
2022/05/31 00:10:58;;;;;;;4.97;3.03;;;13.10;98.10;;;;;;7343841;19;108262;-90
2022/05/31 00:13:25;;;;;;;5.43;3.10;;;13.00;98.20;;;;;;7340891;19;107976;-90
2022/05/31 00:15:52;;;;;;;7.60;3.53;;;13.00;98.20;;;;;;7343522;19;107834;-90
2022/05/31 00:18:19;;;;;;;11.98;3.83;;;13.00;98.40;;;;;;7341346;19;110211;-90
2022/05/31 00:20:47;;;;;;;4.45;3.13;;;12.90;98.70;;;;;;7346782;19;107518;-90
2022/05/31 00:23:14;;;;;;;8.20;3.40;;;12.90;98.70;;;;;;7339787;19;110609;-89
2022/05/31 00:25:41;;;;;;;7.00;3.85;;;12.80;98.60;;;;;;7340112;19;109326;-90
2022/05/31 00:28:08;;;;;;;9.40;3.42;;;12.80;99.00;;;;;;7344185;19;110858;-90
2022/05/31 00:30:37;;;;;;;5.28;3.17;;;12.80;99.10;;;;;;7343450;19;109621;-89
2022/05/31 00:33:06;;;;;;;7.88;3.92;;;12.80;98.90;;;;;;7343369;19;108189;-90
2022/05/31 00:35:38;;;;;;;4.57;2.90;;;12.80;98.90;;;;;;7339846;19;108338;-90
2022/05/31 00:38:07;;;;;;;9.32;3.60;;;12.80;98.90;;;;;;7340428;19;108357;-90
2022/05/31 00:40:35;;;;;;;6.30;3.92;;;12.90;99.00;;;;;;7340785;19;107250;-90
2022/05/31 00:43:06;;;;;;;7.03;3.10;;;12.80;99.20;;;;;;7347795;19;108252;-89
2022/05/31 00:45:41;;;;;;;5.53;3.42;;;12.60;99.40;;;;;;7342124;19;108153;-90
2022/05/31 00:48:32;;;;;;;6.63;3.25;;;12.60;99.20;;;;;;7337448;19;108881;-90
2022/05/31 00:51:04;;;;;;;8.93;3.50;;;12.60;99.30;;;;;;7342818;19;108923;-90
2022/05/31 00:53:39;;;;;;;7.38;3.53;;;12.60;99.40;;;;;;7343628;19;107938;-88
2022/05/31 00:56:22;;;;;;;8.10;3.00;;;12.60;99.50;;;;;;7338616;19;110277;-90
2022/05/31 00:58:56;;;;;;;5.80;3.70;;;12.60;99.60;;;;;;7342693;19;108466;-89
2022/05/31 01:01:24;;;;;;;6.25;3.30;;;12.50;99.80;;;;;;7340523;19;108058;-89
2022/05/31 01:03:52;;;;;;;7.20;3.65;;;12.60;99.70;;;;;;7345438;19;108917;-90
2022/05/31 01:06:19;;;;;;;7.20;3.45;;;12.50;99.70;;;;;;7343704;19;107660;-89
2022/05/31 01:08:47;;;;;;;7.03;3.13;;;12.60;99.60;;;;;;7342801;19;108623;-90
2022/05/31 01:11:19;;;;;;;7.47;3.67;;;12.60;99.70;;;;;;7341582;19;110217;-91
2022/05/31 01:13:46;;;;;;;5.53;3.50;;;12.60;99.90;;;;;;7341873;19;107306;-90
2022/05/31 01:16:15;;;;;;;10.05;3.95;;;12.50;99.90;;;;;;7340524;19;107866;-89
2022/05/31 01:18:42;;;;;;;7.28;3.95;;;12.50;99.90;;;;;;7341912;19;109496;-90
2022/05/31 01:21:09;;;;;;;7.75;3.75;;;12.40;99.90;;;;;;7342555;19;109688;-90
2022/05/31 01:23:43;;;;;;;5.53;3.95;;;12.40;99.90;;;;;;7343000;19;107333;-90
2022/05/31 01:26:38;;;;;;;6.93;3.78;;;12.40;99.90;;;;;;7350028;19;108607;-90
2022/05/31 01:29:17;;;;;;;9.02;4.70;;;12.40;99.90;;;;;;7348259;19;107721;-88
2022/05/31 01:31:53;;;;;;;5.45;3.65;;;12.40;99.90;;;;;;7346979;19;109359;-90
2022/05/31 01:34:23;;;;;;;7.43;3.80;;;12.50;99.90;;;;;;7345532;19;110629;-89
2022/05/31 01:36:53;;;;;;;9.10;4.55;;;12.50;99.90;;;;;;7345415;19;108599;-90
2022/05/31 01:39:41;;;;;;;10.32;5.00;;;12.50;99.90;;;;;;7347198;19;109234;-90
2022/05/31 01:42:11;;;;;;;;;;;12.50;99.90;;;;;;7348520;19;109594;-89
2022/05/31 01:44:43;;;;;;;8.05;3.70;;;12.50;99.90;;;;;;7350638;19;108058;-89
2022/05/31 01:47:12;;;;;;;5.53;3.88;;;12.50;99.90;;;;;;7347649;19;108833;-90
2022/05/31 01:49:44;;;;;;;7.72;4.13;;;12.60;99.90;;;;;;7351501;19;108272;-89
2022/05/31 01:52:12;;;;;;;7.03;4.05;;;12.60;99.90;;;;;;7345159;19;111685;-89
2022/05/31 01:54:41;;;;;;;6.95;4.35;;;12.60;99.90;;;;;;7346739;19;108287;-89
2022/05/31 01:57:11;;;;;;;12.13;4.43;;;12.60;99.90;;;;;;7345126;19;107654;-90
2022/05/31 01:59:48;;;;;;;5.03;4.53;;;12.60;99.90;;;;;;7346399;19;111075;-90
2022/05/31 02:02:18;;;;;;;6.88;4.75;;;12.70;99.90;;;;;;7347537;19;108359;-90
2022/05/31 02:04:45;;;;;;;9.85;4.32;;;12.60;99.90;;;;;;7347109;19;111274;-90
2022/05/31 02:07:16;;;;;;;9.25;4.75;;;12.60;99.90;;;;;;7346239;19;109206;-90
2022/05/31 02:09:46;;;;;;;9.88;5.00;;;12.60;99.90;;;;;;7346854;19;107775;-89
2022/05/31 02:12:21;;;;;;;8.13;4.93;;;12.60;99.90;;;;;;7352869;19;107643;-90
2022/05/31 02:14:48;;;;;;;11.63;5.55;;;12.50;99.90;;;;;;7345902;19;107968;-89
2022/05/31 02:17:18;;;;;;;8.10;4.88;;;12.40;99.90;;;;;;7347724;19;108226;-89
2022/05/31 02:19:45;;;;;;;10.45;5.35;;;12.40;99.90;;;;;;7347454;19;107961;-90
2022/05/31 02:22:15;;;;;;;11.55;5.15;;;12.30;99.90;;;;;;7344699;19;108145;-89
2022/05/31 02:24:42;;;;;;;6.05;4.68;;;12.30;99.90;;;;;;7346868;19;107448;-90
2022/05/31 02:27:10;;;;;;;11.90;4.90;;;12.30;99.90;;;;;;7347295;19;108700;-88
2022/05/31 02:29:38;;;;;;;7.63;4.60;;;12.30;99.90;;;;;;7346490;19;108073;-89
2022/05/31 02:32:08;;;;;;;9.00;5.25;;;12.30;99.90;;;;;;7342921;19;109799;-90
2022/05/31 02:34:39;;;;;;;8.52;5.68;;;12.30;99.90;;;;;;7349023;19;109331;-90
2022/05/31 02:37:06;;;;;;;6.93;4.50;;;12.20;99.90;;;;;;7344935;19;108618;-90
2022/05/31 02:39:34;;;;;;;8.77;5.47;;;12.20;99.90;;;;;;7345061;19;109984;-88
2022/05/31 02:42:02;;;;;;;7.18;5.05;;;12.20;99.90;;;;;;7344838;19;107801;-90
2022/05/31 02:44:29;;;;;;;10.15;5.30;;;12.30;99.90;;;;;;7344529;19;107649;-90
2022/05/31 02:46:57;;;;;;;8.30;5.20;;;12.20;99.90;;;;;;7345571;19;107899;-90
2022/05/31 02:49:24;;;;;;;10.73;4.90;;;12.10;99.90;;;;;;7344684;19;107008;-89
2022/05/31 02:51:51;;;;;;;6.35;4.43;;;12.00;99.90;;;;;;7346526;19;108425;-91
2022/05/31 02:54:20;;;;;;;8.77;4.40;;;12.00;99.90;;;;;;7345065;19;109759;-90
2022/05/31 02:56:48;;;;;;;10.43;5.00;;;12.10;99.90;;;;;;7350180;19;107619;-90
2022/05/31 02:59:15;;;;;;;13.25;5.57;;;12.20;99.90;;;;;;7347497;19;111030;-90
2022/05/31 03:01:43;;;;;;;8.73;4.10;;;12.20;99.90;;;;;;7347694;19;108341;-91
2022/05/31 03:04:11;;;;;;;7.45;4.65;;;12.20;99.90;;;;;;7344054;19;107518;-90
2022/05/31 03:06:40;;;;;;;9.15;4.70;;;12.20;99.90;;;;;;7334102;19;111844;-83
2022/05/31 03:09:07;;;;;;;11.30;5.05;;;12.20;99.90;;;;;;7336441;19;107865;-84
2022/05/31 03:11:37;;;;;;;5.97;4.72;;;12.20;99.90;;;;;;7336030;19;108141;-84
2022/05/31 03:14:27;;;;;;;7.15;4.70;;;12.10;99.90;;;;;;7340476;19;109094;-83
2022/05/31 03:17:09;;;;;;;9.35;5.18;;;12.10;99.90;;;;;;7342876;19;108414;-84
2022/05/31 03:19:48;;;;;;;7.57;4.90;;;12.10;99.90;;;;;;7339127;19;109063;-84
2022/05/31 03:22:21;;;;;;;8.95;4.72;;;12.10;99.90;;;;;;7339708;19;107700;-83
2022/05/31 03:25:02;;;;;;;10.50;5.28;;;12.20;99.90;;;;;;7339247;19;107906;-84
2022/05/31 03:27:29;;;;;;;7.15;5.20;;;12.20;99.90;;;;;;7336570;19;108749;-84
2022/05/31 03:29:58;;;;;;;8.05;4.65;;;12.30;99.90;;;;;;7341040;19;107590;-84
2022/05/31 03:32:25;;;;;;;9.30;5.30;;;12.20;99.90;;;;;;7343962;19;110633;-83
2022/05/31 03:34:53;;;;;;;10.02;5.03;;;12.20;99.90;;;;;;7341901;19;108977;-83
2022/05/31 03:37:20;;;;;;;9.85;5.72;;;12.20;99.90;;;;;;7336536;19;110702;-84
2022/05/31 03:39:47;;;;;;;7.00;4.97;;;12.20;99.90;;;;;;7341656;19;108675;-83
2022/05/31 03:42:14;;;;;;;10.10;5.57;;;12.10;99.90;;;;;;7339596;19;108166;-84
2022/05/31 03:44:41;;;;;;;10.40;5.60;;;12.20;99.90;;;;;;7336986;19;109444;-83
2022/05/31 03:47:08;;;;;;;7.53;5.75;;;12.20;99.90;;;;;;7337466;19;111430;-83
2022/05/31 03:49:35;;;;;;;10.43;5.13;;;12.20;99.90;;;;;;7336881;19;110729;-84
2022/05/31 03:52:03;;;;;;;6.45;5.25;;;12.10;99.90;;;;;;7342087;19;108284;-84
2022/05/31 03:54:33;;;;;;;11.48;5.97;;;12.10;99.90;;;;;;7338624;19;109157;-84
2022/05/31 03:57:00;;;;;;;9.07;5.60;;;12.10;99.90;;;;;;7338277;19;108308;-84
2022/05/31 03:59:29;;;;;;;15.48;6.22;;;12.00;99.90;;;;;;7339194;19;108349;-83
2022/05/31 04:01:56;;;;;;;10.48;5.70;;;12.00;99.90;;;;;;7345610;19;108987;-84
2022/05/31 04:04:23;;;;;;;13.55;5.72;;;12.00;99.90;;;;;;7339525;19;107960;-83
2022/05/31 04:06:50;;;;;;;9.35;5.85;;;12.00;99.90;;;;;;7338496;19;108765;-83
2022/05/31 04:09:17;;;;;;;;;;;11.90;99.90;;;;;;7338319;19;111275;-84
2022/05/31 04:11:44;;;;;;;12.52;5.80;;;11.90;99.90;;;;;;7340718;19;107094;-84
2022/05/31 04:14:11;;;;;;;13.00;6.10;;;11.80;99.90;;;;;;7338269;19;108287;-83
2022/05/31 04:16:38;;;;;;;9.52;6.75;;;11.90;99.90;;;;;;7333705;19;108738;-83
2022/05/31 04:19:05;;;;;;;11.23;6.07;;;12.00;99.90;;;;;;7335878;19;108655;-84
2022/05/31 04:21:32;;;;;;;11.57;5.40;;;12.00;99.90;;;;;;7339390;19;107921;-83
2022/05/31 04:23:59;;;;;;;13.57;6.30;;;12.10;99.90;;;;;;7343805;19;108897;-84
2022/05/31 04:26:30;;;;;;;11.80;7.05;;;12.20;99.90;;;;;;7338601;19;111680;-83
2022/05/31 04:28:58;;;;;;;17.58;6.82;;;12.20;99.90;;;;;;7338173;19;108967;-84
2022/05/31 04:31:25;;;;;;;14.02;6.80;;;12.30;99.90;;;;;;7340142;19;108782;-84
2022/05/31 04:33:53;;;;;;;8.77;5.20;;;12.30;99.90;;;;;;7338965;19;112346;-83
2022/05/31 04:36:22;;;;;;;10.93;6.05;;;12.40;99.90;;;;;;7335693;19;107816;-83
2022/05/31 04:38:50;;;;;;;16.50;6.55;;;12.40;99.90;;;;;;7337766;19;108071;-83
2022/05/31 04:41:23;;;;;;;12.25;6.97;;;12.50;99.90;;;;;;7338065;19;109353;-84
2022/05/31 04:44:00;;;;;;;11.95;6.43;;;12.50;99.90;;;;;;7335921;19;109416;-83
2022/05/31 04:46:29;;;;;;;11.32;6.95;;;12.50;99.90;;;;;;7341368;19;108194;-83
2022/05/31 04:48:59;;;;;;;9.25;6.82;;;12.60;99.90;;;;;;7335605;19;108311;-84
2022/05/31 04:51:27;;;;;;;14.38;6.20;;;12.70;99.90;;;;;;7335007;19;108645;-84
2022/05/31 04:53:55;;;;;;;14.07;6.80;;;12.70;99.90;;;;;;7332259;19;109071;-84
2022/05/31 04:56:22;;;;;;;11.70;6.72;;;12.80;99.90;;;;;;7335828;19;109310;-84
2022/05/31 04:58:52;;;;;;;9.18;6.63;;;12.90;99.90;;;;;;7338284;19;108152;-84
2022/05/31 05:01:20;;;;;;;11.00;6.60;;;12.90;99.90;;;;;;7337889;19;111443;-84
2022/05/31 05:03:48;;;;;;;13.45;6.63;;;12.90;99.90;;;;;;7344274;19;108908;-84
2022/05/31 05:06:17;;;;;;;15.60;6.57;;;13.00;99.90;;;;;;7346295;19;108538;-84
2022/05/31 05:08:44;;;;;;;15.52;7.75;;;13.10;99.90;;;;;;7344766;19;108101;-85
2022/05/31 05:11:15;;;;;;;13.07;6.53;;;13.30;99.90;;;;;;7342229;19;108207;-84
2022/05/31 05:13:43;;;;;;;15.60;6.65;;;13.40;99.90;;;;;;7343482;19;108469;-84
2022/05/31 05:16:12;;;;;;;13.30;7.38;;;13.50;99.90;;;;;;7341116;19;109252;-84
2022/05/31 05:18:40;;;;;;;14.90;7.03;;;13.50;99.90;;;;;;7342166;19;108363;-83
2022/05/31 05:21:11;;;;;;;15.73;7.22;;;13.60;99.90;;;;;;7343652;19;108329;-83
2022/05/31 05:23:38;;;;;;;11.32;6.90;;;13.60;99.90;;;;;;7343671;19;107958;-83
2022/05/31 05:26:06;;;;;;;14.98;8.23;;;13.70;99.90;;;;;;7345233;19;108263;-83
2022/05/31 05:31:27;;;;;;;14.35;7.82;;;13.90;99.90;;;;;;7346394;19;108775;-83
2022/05/31 05:33:55;;;;;;;15.82;7.68;;;13.90;99.90;;;;;;7346335;19;110320;-83
2022/05/31 05:36:23;;;;;;;17.45;7.95;;;14.00;99.90;;;;;;7342399;19;107284;-83
2022/05/31 05:38:51;;;;;;;21.55;8.48;;;14.00;99.90;;;;;;7343300;19;109045;-84
2022/05/31 05:41:20;;;;;;;19.20;8.00;;;14.10;99.90;;;;;;7339917;19;108832;-83
2022/05/31 05:43:48;;;;;;;13.50;7.85;;;14.20;99.90;;;;;;7343439;19;107457;-83
2022/05/31 05:46:24;;;;;;;15.07;7.78;;;14.40;99.90;;;;;;7341414;19;109929;-83
2022/05/31 05:48:52;;;;;;;13.25;8.55;;;14.60;99.90;;;;;;7342161;19;109758;-84
2022/05/31 05:51:20;;;;;;;21.70;7.88;;;14.70;99.90;;;;;;7348844;19;108638;-83
2022/05/31 05:53:48;;;;;;;22.05;10.00;;;14.90;99.90;;;;;;7342581;19;108642;-82
2022/05/31 05:56:15;;;;;;;20.45;10.43;;;15.00;99.90;;;;;;7335238;19;111565;-83
2022/05/31 05:58:46;;;;;;;19.80;11.23;;;15.10;99.90;;;;;;7338243;19;112158;-84
2022/05/31 06:01:39;;;;;;;23.17;12.27;;;15.20;99.90;;;;;;7339790;19;110542;-83
2022/05/31 06:04:48;;;;;;;25.05;14.75;;;15.40;99.90;;;;;;7337706;19;113164;-83
2022/05/31 06:07:24;;;;;;;29.92;16.45;;;15.50;99.90;;;;;;7340683;19;111543;-83
2022/05/31 06:09:56;;;;;;;32.40;17.55;;;15.60;99.90;;;;;;7341329;19;111090;-84
2022/05/31 06:12:27;;;;;;;36.22;17.30;;;15.60;99.90;;;;;;7336542;19;110898;-84
2022/05/31 06:15:01;;;;;;;30.27;15.68;;;15.70;99.90;;;;;;7343245;19;111068;-84
2022/05/31 06:17:37;;;;;;;32.08;15.32;;;15.70;99.50;;;;;;7338045;19;112059;-83
2022/05/31 06:20:07;;;;;;;38.72;17.42;;;15.80;99.50;;;;;;7339214;19;110784;-84
2022/05/31 06:22:37;;;;;;;24.42;14.65;;;15.80;99.20;;;;;;7338449;19;112164;-84
2022/05/31 06:25:05;;;;;;;26.23;13.82;;;15.90;99.20;;;;;;7339831;19;111838;-84
2022/05/31 06:27:32;;;;;;;22.58;14.07;;;16.00;99.20;;;;;;7340056;19;112269;-84
2022/05/31 06:29:59;;;;;;;25.33;14.55;;;16.10;99.30;;;;;;7341028;19;111043;-83
2022/05/31 06:32:26;;;;;;;23.85;13.10;;;16.20;99.30;;;;;;7341015;19;111122;-82
2022/05/31 06:34:55;;;;;;;21.55;13.85;;;16.30;99.30;;;;;;7339963;19;112097;-82
2022/05/31 06:37:23;;;;;;;23.60;14.05;;;16.40;99.00;;;;;;7341691;19;110535;-83
2022/05/31 06:39:50;;;;;;;18.65;12.63;;;16.50;99.00;;;;;;7338459;19;111611;-82
2022/05/31 06:42:17;;;;;;;24.48;12.85;;;16.60;99.00;;;;;;7337013;19;110216;-83
2022/05/31 06:44:44;;;;;;;21.55;12.50;;;16.70;99.10;;;;;;7338689;19;111492;-84
2022/05/31 06:47:13;;;;;;;19.20;12.30;;;16.80;99.00;;;;;;7338790;19;111720;-83
2022/05/31 06:49:40;;;;;;;17.13;12.05;;;16.90;98.90;;;;;;7337269;19;110419;-84
2022/05/31 06:57:45;;;;;;;21.67;12.85;;;17.00;98.70;;;;;;7339007;19;109903;-84
2022/05/31 07:00:15;;;;;;;24.83;14.60;;;16.90;98.50;;;;;;7346226;19;111017;-84
2022/05/31 07:02:42;;;;;;;26.75;14.85;;;16.90;98.50;;;;;;7339560;19;109907;-85
2022/05/31 07:05:11;;;;;;;30.88;16.05;;;16.90;98.50;;;;;;7341521;19;112268;-84
2022/05/31 07:07:39;;;;;;;39.22;18.92;;;16.90;98.40;;;;;;7338024;19;111037;-84
2022/05/31 07:10:07;;;;;;;41.50;20.52;;;17.00;98.30;;;;;;7338677;19;109983;-84
2022/05/31 07:12:35;;;;;;;42.22;20.88;;;17.00;98.00;;;;;;7340452;19;111078;-84
2022/05/31 07:15:04;;;;;;;31.95;17.63;;;17.10;98.20;;;;;;7340626;19;111204;-84
2022/05/31 07:17:31;;;;;;;34.17;17.48;;;17.10;97.90;;;;;;7334605;19;111530;-84
2022/05/31 07:19:58;;;;;;;34.28;18.38;;;17.20;97.90;;;;;;7343244;19;111490;-84
2022/05/31 07:22:35;;;;;;;30.00;16.98;;;17.20;97.60;;;;;;7338063;19;111619;-84
2022/05/31 07:25:03;;;;;;;32.15;17.25;;;17.20;97.50;;;;;;7330699;19;111022;-84
2022/05/31 07:27:30;;;;;;;31.50;19.15;;;17.20;97.20;;;;;;7336691;19;111172;-84
2022/05/31 07:29:58;;;;;;;22.75;13.32;;;17.20;97.50;;;;;;7336762;19;110421;-84
2022/05/31 07:32:26;;;;;;;21.10;13.45;;;17.30;97.50;;;;;;7334592;19;110644;-84
2022/05/31 07:35:13;;;;;;;24.35;14.77;;;17.40;97.00;;;;;;7336572;19;114352;-84
2022/05/31 07:37:40;;;;;;;12.80;8.88;;;17.40;97.20;;;;;;7334858;19;111817;-84
2022/05/31 07:40:07;;;;;;;14.73;8.13;;;17.50;96.70;;;;;;7340847;19;111519;-84
2022/05/31 07:42:35;;;;;;;9.85;7.63;;;17.60;96.50;;;;;;7343950;19;108704;-84
2022/05/31 07:45:02;;;;;;;14.57;8.55;;;17.60;96.20;;;;;;7340124;19;108088;-84
2022/05/31 07:47:30;;;;;;;10.43;7.47;;;17.70;96.30;;;;;;7342125;19;109206;-84
2022/05/31 07:49:57;;;;;;;11.18;7.13;;;17.80;95.00;;;;;;7342814;19;110675;-84
2022/05/31 07:52:25;;;;;;;9.50;6.65;;;17.80;95.80;;;;;;7341513;19;107237;-84
2022/05/31 07:54:53;;;;;;;12.13;6.93;;;17.90;96.10;;;;;;7337102;19;107418;-84
2022/05/31 08:00:06;;;;;;;7.97;6.20;;;18.30;96.20;;;;;;7339852;19;107305;-84
2022/05/31 08:02:34;;;;;;;7.50;6.18;;;18.50;96.00;;;;;;7338597;19;108013;-85
2022/05/31 08:05:01;;;;;;;11.02;6.57;;;18.60;95.40;;;;;;7345515;19;108220;-84
2022/05/31 08:07:28;;;;;;;9.00;6.80;;;18.80;95.30;;;;;;7336760;19;109108;-85
2022/05/31 08:09:55;;;;;;;11.30;7.07;;;18.80;95.20;;;;;;7339296;19;108350;-83
2022/05/31 08:12:22;;;;;;;12.82;7.53;;;18.80;94.80;;;;;;7336070;19;108126;-83
2022/05/31 08:14:49;;;;;;;9.98;6.88;;;18.80;94.60;;;;;;7339831;19;108484;-84
2022/05/31 08:17:17;;;;;;;13.57;6.95;;;18.80;94.40;;;;;;7335506;19;110591;-84
2022/05/31 08:19:44;;;;;;;11.38;7.75;;;18.80;94.80;;;;;;7337486;19;108369;-85
2022/05/31 08:22:11;;;;;;;13.55;7.90;;;18.90;94.30;;;;;;7338587;19;108086;-85
2022/05/31 08:24:39;;;;;;;12.13;8.38;;;18.90;93.40;;;;;;7337698;19;112593;-85
2022/05/31 08:27:11;;;;;;;8.68;7.63;;;18.90;93.80;;;;;;7342843;19;108281;-84
2022/05/31 08:29:38;;;;;;;10.23;7.90;;;18.90;93.50;;;;;;7339963;19;108793;-84
2022/05/31 08:32:06;;;;;;;13.43;7.70;;;19.00;93.70;;;;;;7337264;19;108105;-83
2022/05/31 08:34:33;;;;;;;14.20;7.80;;;19.00;93.70;;;;;;7339409;19;108856;-85
2022/05/31 08:37:01;;;;;;;10.40;7.55;;;19.10;93.80;;;;;;7343618;19;113158;-84
2022/05/31 08:39:28;;;;;;;10.27;6.95;;;19.20;93.50;;;;;;7345739;19;108109;-84
2022/05/31 08:42:08;;;;;;;9.18;5.97;;;19.20;93.30;;;;;;7346845;19;108338;-85
2022/05/31 08:44:49;;;;;;;11.52;7.80;;;19.40;93.40;;;;;;7343350;19;109336;-84
2022/05/31 08:47:36;;;;;;;13.43;8.60;;;19.40;92.70;;;;;;7345484;19;108756;-85
2022/05/31 08:53:37;;;;;;;11.35;5.68;;;19.30;92.90;;;;;;7345416;19;108025;-84
2022/05/31 08:59:20;;;;;;;12.07;8.05;;;19.70;92.80;;;;;;7345953;19;108694;-85
2022/05/31 09:01:53;;;;;;;10.05;7.10;;;19.80;91.50;;;;;;7348236;19;108060;-85
2022/05/31 09:04:25;;;;;;;8.27;6.82;;;19.90;91.80;;;;;;7347917;19;107978;-84
2022/05/31 09:07:09;;;;;;;8.75;7.20;;;19.90;91.80;;;;;;7347723;19;108664;-84
2022/05/31 09:09:52;;;;;;;14.85;8.32;;;20.00;91.60;;;;;;7346148;19;107294;-85
2022/05/31 09:12:52;;;;;;;7.93;6.53;;;20.10;91.60;;;;;;7343027;19;108817;-85
2022/05/31 09:15:41;;;;;;;11.32;7.22;;;20.20;91.70;;;;;;7352053;19;109073;-85
2022/05/31 09:18:16;;;;;;;9.18;6.72;;;20.30;91.20;;;;;;7343575;19;107938;-84
2022/05/31 09:20:51;;;;;;;6.97;6.27;;;20.40;91.60;;;;;;7345086;19;109655;-85
2022/05/31 09:23:23;;;;;;;10.75;6.72;;;20.50;91.30;;;;;;7345165;19;107367;-84
2022/05/31 09:26:08;;;;;;;11.63;6.68;;;20.60;91.10;;;;;;7346451;19;107962;-85
2022/05/31 09:28:51;;;;;;;7.28;4.90;;;20.70;90.80;;;;;;7344369;19;108165;-84
2022/05/31 09:31:42;;;;;;;8.23;4.80;;;20.90;90.40;;;;;;7346840;19;108485;-85
2022/05/31 09:34:30;;;;;;;12.23;5.00;;;20.90;90.20;;;;;;7345308;19;108418;-84
2022/05/31 09:37:29;;;;;;;5.78;4.97;;;21.00;90.30;;;;;;7350695;19;108987;-85
2022/05/31 09:40:10;;;;;;;6.55;5.82;;;21.00;87.10;;;;;;7346684;19;108105;-85
2022/05/31 09:42:52;;;;;;;6.40;5.35;;;20.80;84.60;;;;;;7346593;19;108675;-84
2022/05/31 09:45:20;;;;;;;8.35;5.50;;;20.70;83.40;;;;;;7346113;19;107271;-84
2022/05/31 09:47:50;;;;;;;7.10;5.47;;;20.50;84.60;;;;;;7343221;19;110588;-85
2022/05/31 09:50:26;;;;;;;7.72;4.70;;;20.50;86.90;;;;;;7343405;19;108110;-85
2022/05/31 09:52:56;;;;;;;10.65;3.58;;;20.70;87.80;;;;;;7345310;19;107047;-84
2022/05/31 09:58:36;;;;;;;5.03;2.70;;;21.20;81.90;;;;;;7344091;19;108254;-85
2022/05/31 10:01:22;;;;;;;6.30;3.10;;;21.40;84.50;;;;;;7349527;19;109155;-84
2022/05/31 10:03:55;;;;;;;4.50;3.60;;;21.50;84.70;;;;;;7343412;19;109109;-84
2022/05/31 10:06:25;;;;;;;8.75;3.90;;;21.50;81.20;;;;;;7345788;19;107957;-84
2022/05/31 10:08:54;;;;;;;6.82;4.50;;;21.60;83.90;;;;;;7343613;19;108516;-84
2022/05/31 10:11:25;;;;;;;6.72;4.32;;;21.60;79.90;;;;;;7343004;19;111509;-84
2022/05/31 10:13:59;;;;;;;3.70;2.53;;;21.60;81.70;;;;;;7343835;19;108088;-84
2022/05/31 10:16:35;;;;;;;4.10;2.75;;;21.80;82.50;;;;;;7345790;19;108142;-84
2022/05/31 10:19:06;;;;;;;8.25;3.53;;;21.90;82.50;;;;;;7341165;19;108789;-84
2022/05/31 10:21:43;;;;;;;5.18;3.40;;;21.90;83.00;;;;;;7344777;19;107313;-84
2022/05/31 10:24:16;;;;;;;6.50;3.03;;;21.80;82.10;;;;;;7349426;19;107640;-84
2022/05/31 10:26:45;;;;;;;6.72;2.38;;;21.90;77.80;;;;;;7344118;19;108220;-85
2022/05/31 10:29:33;;;;;;;3.30;2.03;;;21.80;77.50;;;;;;7345943;19;111795;-84
2022/05/31 10:32:22;;;;;;;5.63;2.22;;;21.90;78.50;;;;;;7345354;19;109010;-85
2022/05/31 10:35:03;;;;;;;4.03;2.03;;;22.10;79.40;;;;;;7345341;19;108146;-85
2022/05/31 10:37:32;;;;;;;4.28;2.15;;;22.30;80.50;;;;;;7342801;19;108101;-84
2022/05/31 10:40:01;;;;;;;3.72;2.35;;;22.60;80.90;;;;;;7340504;19;108897;-85
2022/05/31 10:42:30;;;;;;;4.35;1.98;;;22.70;75.10;;;;;;7342339;19;108511;-84
2022/05/31 10:45:02;;;;;;;4.65;1.80;;;22.70;75.10;;;;;;7344225;19;108367;-84
2022/05/31 10:47:29;;;;;;;5.30;2.25;;;22.80;75.80;;;;;;7349049;19;109294;-84
2022/05/31 10:49:56;;;;;;;3.75;2.20;;;23.00;76.30;;;;;;7345471;19;107409;-84
2022/05/31 10:52:42;;;;;;;3.10;1.80;;;23.20;75.60;;;;;;7344552;19;108971;-84
2022/05/31 10:55:21;;;;;;;6.68;2.58;;;23.40;75.60;;;;;;7340850;19;107877;-85
2022/05/31 10:58:04;;;;;;;5.72;2.17;;;23.50;74.10;;;;;;7342205;19;109737;-85
2022/05/31 11:00:38;;;;;;;3.80;2.00;;;23.40;71.70;;;;;;7343337;19;107844;-84
2022/05/31 11:03:22;;;;;;;2.67;1.80;;;23.20;72.00;;;;;;7342669;19;107948;-84
2022/05/31 11:06:07;;;;;;;6.38;1.55;;;23.10;73.30;;;;;;7343839;19;107312;-84
2022/05/31 11:11:52;;;;;;;4.35;1.88;;;23.30;69.00;;;;;;7347495;19;108015;-84
2022/05/31 11:14:27;;;;;;;2.75;1.70;;;23.50;71.70;;;;;;7343692;19;108967;-85
2022/05/31 11:17:34;;;;;;;4.03;1.75;;;23.60;71.70;;;;;;7341687;19;111071;-85
2022/05/31 11:20:22;;;;;;;4.13;1.40;;;23.90;70.90;;;;;;7342499;19;108840;-84
2022/05/31 11:23:13;;;;;;;2.40;1.60;;;24.00;70.70;;;;;;7343638;19;108838;-84
2022/05/31 11:26:12;;;;;;;4.20;1.77;;;24.10;70.50;;;;;;7341869;19;109068;-84
2022/05/31 11:29:28;;;;;;;2.13;1.58;;;24.30;67.50;;;;;;7341651;19;107369;-83
2022/05/31 11:32:18;;;;;;;6.55;1.30;;;24.30;68.00;;;;;;7342188;19;107915;-84
2022/05/31 11:35:09;;;;;;;3.28;1.40;;;24.30;67.50;;;;;;7341843;19;107577;-84
2022/05/31 11:37:36;;;;;;;3.65;1.65;;;24.30;66.80;;;;;;7346574;19;110582;-84
2022/05/31 11:40:14;;;;;;;3.13;1.33;;;24.00;64.90;;;;;;7342594;19;108264;-83
2022/05/31 11:42:57;;;;;;;4.03;1.20;;;23.90;66.20;;;;;;7342960;19;109015;-84
2022/05/31 11:45:32;;;;;;;4.35;1.40;;;23.80;65.60;;;;;;7342109;19;108640;-84
2022/05/31 11:48:18;;;;;;;2.60;1.30;;;23.70;65.70;;;;;;7342694;19;108104;-83
2022/05/31 11:51:07;;;;;;;2.78;0.98;;;23.60;64.80;;;;;;7341558;19;108272;-84
2022/05/31 11:53:43;;;;;;;5.45;1.38;;;23.40;65.80;;;;;;7342261;19;107855;-84
2022/05/31 11:56:28;;;;;;;3.42;1.30;;;23.10;64.00;;;;;;7343373;19;108320;-85
2022/05/31 11:59:05;;;;;;;2.80;1.42;;;23.00;65.50;;;;;;7346885;19;108520;-84
2022/05/31 12:01:42;;;;;;;2.97;1.55;;;22.90;67.40;;;;;;7341023;19;108373;-84
2022/05/31 12:04:19;;;;;;;3.83;1.65;;;22.90;64.10;;;;;;7342687;19;108693;-84
2022/05/31 12:07:15;;;;;;;3.65;1.67;;;22.80;64.80;;;;;;7342696;19;108923;-85
2022/05/31 12:09:58;;;;;;;5.70;1.83;;;22.80;65.80;;;;;;7338470;19;107625;-84
2022/05/31 12:12:31;;;;;;;7.97;1.80;;;22.60;65.80;;;;;;7338422;19;108891;-84
2022/05/31 12:15:06;;;;;;;2.75;1.63;;;22.40;66.30;;;;;;7340748;19;109023;-84
2022/05/31 12:17:44;;;;;;;4.75;1.58;;;22.30;68.30;;;;;;7339440;19;107913;-84
2022/05/31 12:20:29;;;;;;;4.32;1.77;;;22.40;65.00;;;;;;7338011;19;107173;-85
2022/05/31 12:23:03;;;;;;;4.53;1.77;;;22.40;67.20;;;;;;7343848;19;111776;-85
2022/05/31 12:25:37;;;;;;;4.55;1.80;;;22.40;68.10;;;;;;7340840;19;108109;-84
2022/05/31 12:28:18;;;;;;;9.68;1.80;;;22.30;65.10;;;;;;7339934;19;108575;-84
2022/05/31 12:31:10;;;;;;;4.97;2.30;;;22.20;66.30;;;;;;7338426;19;108191;-85
2022/05/31 12:33:44;;;;;;;4.00;1.95;;;22.10;66.20;;;;;;7334596;19;110792;-85
2022/05/31 12:36:22;;;;;;;3.58;1.75;;;22.00;67.70;;;;;;7336131;19;108770;-85
2022/05/31 12:39:04;;;;;;;3.53;1.90;;;22.00;69.10;;;;;;7336937;19;113045;-85
2022/05/31 12:41:31;;;;;;;3.25;1.60;;;22.20;68.20;;;;;;7337906;19;108291;-86
2022/05/31 12:43:59;;;;;;;2.60;1.40;;;22.30;68.60;;;;;;7335017;19;109638;-86
2022/05/31 12:46:36;;;;;;;5.70;1.52;;;22.50;68.90;;;;;;7345214;19;109040;-86
2022/05/31 12:49:10;;;;;;;4.63;1.23;;;22.80;69.40;;;;;;7336198;19;112133;-85
2022/05/31 12:51:38;;;;;;;4.65;1.25;;;23.10;68.90;;;;;;7340411;19;107907;-85
2022/05/31 12:54:08;;;;;;;2.28;1.23;;;23.30;66.20;;;;;;7337112;19;108243;-85
2022/05/31 12:56:38;;;;;;;4.93;1.15;;;23.60;68.00;;;;;;7340521;19;110942;-85
2022/05/31 12:59:07;;;;;;;2.75;0.77;;;23.80;66.00;;;;;;7339561;19;107356;-85
2022/05/31 13:01:57;;;;;;;1.65;0.90;;;23.90;65.00;;;;;;7339768;19;108504;-85
2022/05/31 13:04:33;;;;;;;1.02;0.68;;;23.80;63.60;;;;;;7340086;19;109226;-85
2022/05/31 13:07:09;;;;;;;3.73;0.70;;;23.70;63.40;;;;;;7338553;19;108705;-85
2022/05/31 13:09:43;;;;;;;1.63;0.70;;;23.80;64.30;;;;;;7345403;19;107773;-85
2022/05/31 13:21:06;;;;;;;2.33;0.90;;;23.60;62.60;;;;;;7339910;19;108619;-86
2022/05/31 13:23:54;;;;;;;2.70;0.93;;;23.60;61.70;;;;;;7343066;19;110577;-84
2022/05/31 13:26:26;;;;;;;2.65;0.95;;;23.60;62.40;;;;;;7346835;19;108826;-85
2022/05/31 13:29:01;;;;;;;1.85;1.00;;;23.80;62.60;;;;;;7347782;19;107941;-86
2022/05/31 13:31:33;;;;;;;4.53;1.10;;;23.90;61.90;;;;;;7347025;19;108283;-86
2022/05/31 13:34:06;;;;;;;4.18;1.42;;;24.10;61.60;;;;;;7351758;19;108724;-88